createdAt,value
2022-07-29T00:01:48.091Z,100021.59
2022-07-29T00:04:19.198Z,100025.53
2022-07-29T00:06:49.833Z,100041.75
2022-07-29T00:09:20.491Z,100045.91
2022-07-29T00:11:50.418Z,100048.91
2022-07-29T00:14:20.179Z,100062.81
2022-07-29T00:16:51.315Z,100075.22
2022-07-29T00:19:21.349Z,100088.81
2022-07-29T00:21:51.317Z,100095.78
2022-07-29T00:24:21.798Z,100073.19
2022-07-29T00:26:51.838Z,100089.53
2022-07-29T00:29:37.362Z,100081.47
2022-07-29T00:32:07.682Z,100057.56
2022-07-29T00:34:56.862Z,100047.00
2022-07-29T00:37:27.353Z,100035.16
2022-07-29T00:39:57.694Z,100043.03
2022-07-29T00:42:27.903Z,100074.69
2022-07-29T00:44:58.397Z,100102.94
2022-07-29T00:47:28.254Z,100122.09
2022-07-29T00:50:01.771Z,100114.28
2022-07-29T00:52:34.086Z,100110.13
2022-07-29T00:55:08.817Z,100135.16
2022-07-29T00:57:39.647Z,100137.38
2022-07-29T01:00:13.634Z,100142.00
2022-07-29T01:02:43.723Z,100153.06
2022-07-29T01:05:15.056Z,100170.22
2022-07-29T01:07:45.493Z,100172.38
2022-07-29T01:10:18.476Z,100177.06
2022-07-29T01:12:51.571Z,100168.50
2022-07-29T01:15:22.508Z,100199.59
2022-07-29T01:18:22.250Z,100190.78
2022-07-29T01:21:15.714Z,100178.31
2022-07-29T01:24:13.612Z,100170.94
2022-07-29T01:26:45.566Z,100186.38
2022-07-29T01:29:41.271Z,100198.88
2022-07-29T01:32:27.621Z,100182.44
2022-07-29T01:35:19.643Z,100199.09
2022-07-29T01:38:22.764Z,100199.56
2022-07-29T01:40:57.444Z,100182.44
2022-07-29T01:43:39.163Z,100239.75
2022-07-29T01:46:16.324Z,100237.97
2022-07-29T01:48:51.441Z,100246.69
2022-07-29T01:51:37.331Z,100247.25
2022-07-29T01:54:34.582Z,100278.19
2022-07-29T01:57:10.512Z,100296.75
2022-07-29T01:59:41.122Z,100292.50
2022-07-29T02:02:14.083Z,100290.94
2022-07-29T02:04:50.340Z,100295.03
2022-07-29T02:07:24.339Z,100289.50
2022-07-29T02:09:55.388Z,100288.97
2022-07-29T02:12:28.452Z,100296.97
2022-07-29T02:15:00.587Z,100322.41
2022-07-29T02:17:38.856Z,100337.41
2022-07-29T02:20:12.220Z,100341.31
2022-07-29T02:22:44.282Z,100345.72
2022-07-29T02:25:16.288Z,100357.44
2022-07-29T02:27:49.495Z,100360.34
2022-07-29T02:30:21.872Z,100351.41
2022-07-29T02:32:54.264Z,100362.88
2022-07-29T02:35:25.397Z,100377.59
2022-07-29T02:38:14.588Z,100393.84
2022-07-29T02:40:46.256Z,100418.28
2022-07-29T02:43:17.446Z,100436.66
2022-07-29T02:45:51.816Z,100439.88
2022-07-29T02:48:30.132Z,100424.34
2022-07-29T02:51:09.465Z,100420.22
2022-07-29T02:53:46.212Z,100423.00
2022-07-29T02:56:18.877Z,100420.84
2022-07-29T02:59:03.499Z,100418.31
2022-07-29T03:01:36.020Z,100433.69
2022-07-29T03:04:08.128Z,100436.25
2022-07-29T03:06:39.759Z,100447.47
2022-07-29T03:09:13.690Z,100431.72
2022-07-29T03:11:49.828Z,100421.28
2022-07-29T03:14:24.454Z,100426.72
2022-07-29T03:16:55.089Z,100438.16
2022-07-29T03:19:26.045Z,100446.16
2022-07-29T03:21:58.191Z,100459.34
2022-07-29T03:24:39.617Z,100467.03
2022-07-29T03:27:09.648Z,100467.41
2022-07-29T03:29:40.204Z,100458.50
2022-07-29T03:32:13.760Z,100476.63
2022-07-29T03:34:44.549Z,100465.75
2022-07-29T03:37:14.612Z,100470.53
2022-07-29T03:39:45.650Z,100480.16
2022-07-29T03:42:18.748Z,100494.00
2022-07-29T03:44:51.355Z,100499.28
2022-07-29T03:47:35.173Z,100501.66
2022-07-29T03:50:18.257Z,100490.53
2022-07-29T03:52:49.433Z,100488.25
2022-07-29T03:55:20.254Z,100499.47
2022-07-29T03:57:52.011Z,100489.69
2022-07-29T04:00:22.618Z,100496.22
2022-07-29T04:02:53.154Z,100490.78
2022-07-29T04:05:23.643Z,100472.78
2022-07-29T04:07:53.670Z,100475.19
2022-07-29T04:10:31.597Z,100479.34
2022-07-29T04:13:02.712Z,100484.94
2022-07-29T04:15:33.276Z,100477.66
2022-07-29T04:18:03.403Z,100495.69
2022-07-29T04:20:33.277Z,100507.31
2022-07-29T04:23:03.732Z,100506.03
2022-07-29T04:25:34.651Z,100525.00
2022-07-29T04:28:05.282Z,100531.66
2022-07-29T04:30:37.099Z,100521.38
2022-07-29T04:33:09.274Z,100519.31
2022-07-29T04:35:45.705Z,100547.16
2022-07-29T04:38:21.184Z,100557.78
2022-07-29T04:40:51.270Z,100559.75
2022-07-29T04:43:22.754Z,100565.97
2022-07-29T04:45:53.643Z,100561.75
2022-07-29T04:48:28.558Z,100569.19
2022-07-29T04:50:59.389Z,100576.19
2022-07-29T04:53:30.150Z,100578.28
2022-07-29T04:56:01.369Z,100592.66
2022-07-29T04:58:32.062Z,100599.38
2022-07-29T05:01:02.355Z,100604.56
2022-07-29T05:03:33.330Z,100608.25
2022-07-29T05:06:03.606Z,100626.53
2022-07-29T05:08:33.721Z,100624.59
2022-07-29T05:11:12.155Z,100633.53
2022-07-29T05:13:45.694Z,100639.44
2022-07-29T05:16:17.415Z,100637.06
2022-07-29T05:18:51.202Z,100622.84
2022-07-29T05:21:21.438Z,100633.22
2022-07-29T05:23:51.537Z,100633.81
2022-07-29T05:26:21.813Z,100636.06
2022-07-29T05:28:52.743Z,100613.91
2022-07-29T05:31:23.086Z,100626.22
2022-07-29T05:33:54.288Z,100639.72
2022-07-29T05:36:23.997Z,100637.97
2022-07-29T05:38:54.300Z,100644.03
2022-07-29T05:41:25.046Z,100640.78
2022-07-29T05:43:55.246Z,100644.53
2022-07-29T05:46:25.917Z,100645.41
2022-07-29T05:48:56.176Z,100653.34
2022-07-29T05:51:26.871Z,100650.56
2022-07-29T05:53:57.039Z,100658.75
2022-07-29T05:56:28.092Z,100656.69
2022-07-29T05:58:57.802Z,100652.50
2022-07-29T06:01:28.506Z,100651.88
2022-07-29T06:03:58.823Z,100651.88
2022-07-29T06:06:28.956Z,100648.06
2022-07-29T06:08:59.036Z,100639.59
2022-07-29T06:11:30.120Z,100657.25
2022-07-29T06:14:00.330Z,100651.06
2022-07-29T06:16:30.658Z,100660.81
2022-07-29T06:19:00.906Z,100651.31
2022-07-29T06:21:31.145Z,100657.38
2022-07-29T06:24:01.019Z,100621.22
2022-07-29T06:26:33.361Z,100645.50
2022-07-29T06:29:06.655Z,100645.91
2022-07-29T06:31:36.779Z,100642.34
2022-07-29T06:34:07.347Z,100636.13
2022-07-29T06:36:41.392Z,100623.34
2022-07-29T06:39:12.354Z,100623.63
2022-07-29T06:41:45.251Z,100615.97
2022-07-29T06:44:16.871Z,100609.78
2022-07-29T06:46:51.245Z,100634.38
2022-07-29T06:49:21.466Z,100605.16
2022-07-29T06:51:54.351Z,100622.06
2022-07-29T06:54:24.471Z,100619.44
2022-07-29T06:56:55.408Z,100620.22
2022-07-29T06:59:33.467Z,100628.09
2022-07-29T07:02:06.447Z,100610.88
2022-07-29T07:04:36.715Z,100620.03
2022-07-29T07:07:06.909Z,100631.13
2022-07-29T07:09:40.697Z,100624.53
2022-07-29T07:12:12.050Z,100625.16
2022-07-29T07:14:43.714Z,100636.34
2022-07-29T07:17:13.873Z,100638.72
2022-07-29T07:19:43.995Z,100645.66
2022-07-29T07:22:14.161Z,100643.38
2022-07-29T07:24:44.062Z,100639.91
2022-07-29T07:27:14.917Z,100644.56
2022-07-29T07:29:45.100Z,100640.38
2022-07-29T07:32:16.650Z,100614.63
2022-07-29T07:34:46.839Z,100612.53
2022-07-29T07:37:17.514Z,100612.09
2022-07-29T07:39:47.867Z,100606.56
2022-07-29T07:42:18.506Z,100601.56
2022-07-29T07:45:12.050Z,100595.84
2022-07-29T07:47:41.976Z,100597.59
2022-07-29T07:50:18.501Z,100593.13
2022-07-29T07:52:54.760Z,100608.81
2022-07-29T07:55:47.476Z,100597.22
2022-07-29T07:58:22.731Z,100609.72
2022-07-29T08:00:53.043Z,100601.56
2022-07-29T08:03:23.103Z,100613.44
2022-07-29T08:05:53.916Z,100614.34
2022-07-29T08:08:24.536Z,100598.81
2022-07-29T08:11:04.285Z,100602.94
2022-07-29T08:13:40.437Z,100596.47
2022-07-29T08:16:14.327Z,100598.28
2022-07-29T08:18:47.113Z,100607.81
2022-07-29T08:21:20.622Z,100592.75
2022-07-29T08:24:13.835Z,100572.53
2022-07-29T08:26:45.352Z,100602.16
2022-07-29T08:29:19.746Z,100607.50
2022-07-29T08:31:50.609Z,100589.66
2022-07-29T08:34:25.709Z,100582.47
2022-07-29T08:36:59.618Z,100585.56
2022-07-29T08:39:30.487Z,100583.56
2022-07-29T08:42:01.052Z,100591.63
2022-07-29T08:44:32.139Z,100588.34
2022-07-29T08:47:02.541Z,100605.75
2022-07-29T08:49:32.747Z,100614.81
2022-07-29T08:52:03.792Z,100610.78
2022-07-29T08:54:34.596Z,100613.25
2022-07-29T08:57:05.516Z,100625.63
2022-07-29T08:59:37.340Z,100640.81
2022-07-29T09:02:21.389Z,100640.34
2022-07-29T09:04:52.044Z,100647.88
2022-07-29T09:07:22.487Z,100660.88
2022-07-29T09:09:52.498Z,100655.56
2022-07-29T09:12:28.719Z,100660.03
2022-07-29T09:15:00.302Z,100663.97
2022-07-29T09:17:47.474Z,100666.06
2022-07-29T09:20:20.688Z,100667.03
2022-07-29T09:22:55.542Z,100664.56
2022-07-29T09:25:39.440Z,100674.66
2022-07-29T09:28:18.693Z,100663.47
2022-07-29T09:30:57.836Z,100686.59
2022-07-29T09:33:42.526Z,100692.00
2022-07-29T09:36:13.645Z,100691.25
2022-07-29T09:38:43.323Z,100686.66
2022-07-29T09:41:13.285Z,100696.91
2022-07-29T09:43:55.447Z,100714.00
2022-07-29T09:46:27.209Z,100697.97
2022-07-29T09:49:14.838Z,100709.28
2022-07-29T09:51:45.159Z,100723.66
2022-07-29T09:54:29.790Z,100718.06
2022-07-29T09:57:00.012Z,100718.34
2022-07-29T09:59:30.598Z,100720.03
2022-07-29T10:02:01.153Z,100725.22
2022-07-29T10:04:44.807Z,100711.50
2022-07-29T10:07:15.146Z,100724.34
2022-07-29T10:09:55.059Z,100725.25
2022-07-29T10:12:26.156Z,100708.56
2022-07-29T10:14:57.439Z,100712.81
2022-07-29T10:17:27.701Z,100697.88
2022-07-29T10:19:58.942Z,100741.59
2022-07-29T10:22:51.775Z,100735.91
2022-07-29T10:25:20.621Z,100730.19
2022-07-29T10:27:55.977Z,100734.28
2022-07-29T10:30:28.188Z,100743.50
2022-07-29T10:33:32.769Z,100742.97
2022-07-29T10:36:15.036Z,100724.38
2022-07-29T10:39:03.916Z,100731.25
2022-07-29T10:41:48.708Z,100744.44
2022-07-29T10:44:23.826Z,100745.88
2022-07-29T10:46:55.611Z,100749.22
2022-07-29T10:49:30.625Z,100757.56
2022-07-29T10:52:13.346Z,100768.72
2022-07-29T10:55:06.908Z,100771.22
2022-07-29T10:57:52.448Z,100773.97
2022-07-29T11:00:32.978Z,100780.38
2022-07-29T11:03:04.726Z,100776.16
2022-07-29T11:06:00.354Z,100773.91
2022-07-29T11:08:32.892Z,100774.66
2022-07-29T11:11:22.439Z,100784.22
2022-07-29T11:13:59.823Z,100783.31
2022-07-29T11:16:49.683Z,100780.41
2022-07-29T11:19:29.777Z,100783.22
2022-07-29T11:22:01.839Z,100786.97
2022-07-29T11:24:36.498Z,100785.59
2022-07-29T11:27:28.551Z,100786.41
2022-07-29T11:30:05.777Z,100794.41
2022-07-29T11:32:48.551Z,100801.25
2022-07-29T11:35:37.583Z,100823.13
2022-07-29T11:38:32.219Z,100826.97
2022-07-29T11:41:21.279Z,100836.72
2022-07-29T11:43:53.726Z,100831.22
2022-07-29T11:49:48.373Z,100851.28
2022-07-29T11:52:18.685Z,100857.84
2022-07-29T11:54:58.195Z,100865.78
2022-07-29T11:57:36.260Z,100873.06
2022-07-29T12:00:14.642Z,100870.91
2022-07-29T12:02:49.010Z,100873.66
2022-07-29T12:05:36.384Z,100877.00
2022-07-29T12:08:15.353Z,100874.78
2022-07-29T12:10:48.032Z,100889.56
2022-07-29T12:13:21.043Z,100880.50
2022-07-29T12:16:00.069Z,100887.41
2022-07-29T12:18:29.847Z,100891.81
2022-07-29T12:21:03.361Z,100901.69
2022-07-29T12:23:35.539Z,100876.34
2022-07-29T12:26:10.958Z,100875.47
2022-07-29T12:28:52.672Z,100870.47
2022-07-29T12:31:41.877Z,100876.72
2022-07-29T12:34:18.499Z,100877.63
2022-07-29T12:36:48.924Z,100880.41
2022-07-29T12:39:20.108Z,100890.13
2022-07-29T12:41:50.712Z,100894.06
2022-07-29T12:44:21.416Z,100896.94
2022-07-29T12:47:05.350Z,100889.75
2022-07-29T12:49:38.138Z,100880.88
2022-07-29T12:52:32.689Z,100866.97
2022-07-29T12:55:04.369Z,100861.44
2022-07-29T12:57:35.051Z,100874.97
2022-07-29T13:00:13.162Z,100882.06
2022-07-29T13:02:45.582Z,100885.19
2022-07-29T13:05:16.411Z,100883.59
2022-07-29T13:07:55.090Z,100890.34
2022-07-29T13:10:27.859Z,100887.59
2022-07-29T13:13:08.565Z,100890.75
2022-07-29T13:15:41.030Z,100882.00
2022-07-29T13:18:40.957Z,100885.72
2022-07-29T13:21:16.593Z,100878.03
2022-07-29T13:23:48.466Z,100879.28
2022-07-29T13:26:21.782Z,100882.88
2022-07-29T13:28:52.673Z,100886.09
2022-07-29T13:31:24.181Z,100889.44
2022-07-29T13:33:54.605Z,100897.00
2022-07-29T13:36:25.329Z,100907.16
2022-07-29T13:38:55.559Z,100900.50
2022-07-29T13:41:26.250Z,100906.00
2022-07-29T13:43:56.894Z,100919.97
2022-07-29T13:46:27.649Z,100902.31
2022-07-29T13:48:57.934Z,100899.38
2022-07-29T13:51:30.643Z,100893.56
2022-07-29T13:54:00.871Z,100891.81
2022-07-29T13:56:34.757Z,100872.31
2022-07-29T13:59:05.271Z,100874.22
2022-07-29T14:01:39.030Z,100867.06
2022-07-29T14:04:10.838Z,100866.94
2022-07-29T14:06:42.978Z,100884.84
2022-07-29T14:09:16.796Z,100867.44
2022-07-29T14:11:48.003Z,100871.09
2022-07-29T14:14:18.319Z,100867.69
2022-07-29T14:16:52.189Z,100885.41
2022-07-29T14:19:22.736Z,100887.69
2022-07-29T14:21:53.467Z,100897.19
2022-07-29T14:24:23.805Z,100897.97
2022-07-29T14:26:54.755Z,100913.00
2022-07-29T14:29:25.324Z,100908.44
2022-07-29T14:32:09.701Z,100916.28
2022-07-29T14:34:40.948Z,100920.72
2022-07-29T14:37:16.069Z,100915.19
2022-07-29T14:39:46.452Z,100923.31
2022-07-29T14:42:17.586Z,100927.31
2022-07-29T14:44:50.158Z,100931.78
2022-07-29T14:47:23.111Z,100934.16
2022-07-29T14:49:53.344Z,100938.34
2022-07-29T14:52:23.998Z,100937.72
2022-07-29T14:54:54.313Z,100946.50
2022-07-29T14:57:27.959Z,100941.28
2022-07-29T14:59:58.427Z,100936.44
2022-07-29T15:02:52.072Z,100927.81
2022-07-29T15:05:19.327Z,100918.22
2022-07-29T15:07:49.965Z,100919.41
2022-07-29T15:10:24.859Z,100903.19
2022-07-29T15:12:56.124Z,100889.88
2022-07-29T15:15:26.483Z,100898.59
2022-07-29T15:17:57.342Z,100901.22
2022-07-29T15:20:29.149Z,100895.69
2022-07-29T15:22:59.757Z,100900.06
2022-07-29T15:25:32.883Z,100895.94
2022-07-29T15:28:05.054Z,100891.84
2022-07-29T15:30:36.727Z,100887.47
2022-07-29T15:33:13.412Z,100889.22
2022-07-29T15:35:43.640Z,100889.41
2022-07-29T15:38:14.350Z,100879.84
2022-07-29T15:40:45.698Z,100891.94
2022-07-29T15:43:16.442Z,100877.25
2022-07-29T15:46:06.995Z,100870.44
2022-07-29T15:48:40.007Z,100878.22
2022-07-29T15:51:10.361Z,100871.28
2022-07-29T15:53:41.098Z,100864.75
2022-07-29T15:56:11.330Z,100873.53
2022-07-29T15:58:41.982Z,100876.34
2022-07-29T16:01:12.890Z,100888.28
2022-07-29T16:03:46.245Z,100870.41
2022-07-29T16:06:16.867Z,100878.00
2022-07-29T16:08:47.613Z,100865.59
2022-07-29T16:11:17.876Z,100869.19
2022-07-29T16:13:48.659Z,100874.09
2022-07-29T16:16:19.775Z,100875.88
2022-07-29T16:18:50.660Z,100871.22
2022-07-29T16:21:20.376Z,100861.56
2022-07-29T16:23:51.237Z,100867.88
2022-07-29T16:26:20.938Z,100865.28
2022-07-29T16:28:50.835Z,100857.09
2022-07-29T16:31:24.381Z,100858.91
2022-07-29T16:33:58.016Z,100858.66
2022-07-29T16:36:28.650Z,100857.63
2022-07-29T16:38:58.934Z,100841.53
2022-07-29T16:41:30.863Z,100844.50
2022-07-29T16:44:01.164Z,100830.94
2022-07-29T16:46:32.180Z,100833.28
2022-07-29T16:49:02.693Z,100837.78
2022-07-29T16:51:33.412Z,100833.16
2022-07-29T16:54:03.682Z,100841.69
2022-07-29T16:56:34.507Z,100836.06
2022-07-29T16:59:04.395Z,100850.09
2022-07-29T17:01:34.993Z,100847.53
2022-07-29T17:04:08.279Z,100847.91
2022-07-29T17:06:43.461Z,100836.91
2022-07-29T17:09:17.254Z,100844.75
2022-07-29T17:11:55.090Z,100855.63
2022-07-29T17:14:28.008Z,100859.41
2022-07-29T17:17:02.017Z,100856.56
2022-07-29T17:19:35.177Z,100865.13
2022-07-29T17:22:17.097Z,100859.94
2022-07-29T17:24:49.986Z,100869.91
2022-07-29T17:27:20.953Z,100857.34
2022-07-29T17:29:50.562Z,100862.81
2022-07-29T17:32:21.087Z,100863.44
2022-07-29T17:34:51.322Z,100878.91
2022-07-29T17:37:22.442Z,100870.72
2022-07-29T17:39:53.750Z,100864.81
2022-07-29T17:42:29.277Z,100885.22
2022-07-29T17:45:00.044Z,100868.59
2022-07-29T17:47:30.807Z,100875.09
2022-07-29T17:50:00.950Z,100886.66
2022-07-29T17:52:31.590Z,100879.88
2022-07-29T17:55:01.730Z,100873.84
2022-07-29T17:57:31.862Z,100878.63
2022-07-29T18:00:01.891Z,100888.38
2022-07-29T18:02:34.402Z,100879.22
2022-07-29T18:05:07.722Z,100883.06
2022-07-29T18:07:38.483Z,100886.84
2022-07-29T18:10:09.047Z,100887.25
2022-07-29T18:12:39.661Z,100886.94
2022-07-29T18:15:10.147Z,100898.13
2022-07-29T18:17:57.265Z,100893.25
2022-07-29T18:20:28.597Z,100891.38
2022-07-29T18:22:59.541Z,100888.41
2022-07-29T18:25:30.735Z,100872.16
2022-07-29T18:28:01.416Z,100890.91
2022-07-29T18:30:32.008Z,100877.28
2022-07-29T18:33:20.727Z,100889.22
2022-07-29T18:36:11.149Z,100883.56
2022-07-29T18:38:42.857Z,100882.78
2022-07-29T18:41:13.124Z,100887.47
2022-07-29T18:43:43.747Z,100880.31
2022-07-29T18:46:14.070Z,100889.22
2022-07-29T18:48:45.033Z,100882.94
2022-07-29T18:51:14.672Z,100885.66
2022-07-29T18:53:46.929Z,100884.41
2022-07-29T18:56:17.085Z,100878.47
2022-07-29T18:58:47.763Z,100883.31
2022-07-29T19:01:17.975Z,100882.13
2022-07-29T19:03:48.635Z,100885.38
2022-07-29T19:06:24.027Z,100891.66
2022-07-29T19:08:56.475Z,100897.19
2022-07-29T19:11:26.598Z,100901.63
2022-07-29T19:13:57.280Z,100897.59
2022-07-29T19:16:27.484Z,100903.69
2022-07-29T19:18:58.771Z,100902.53
2022-07-29T19:21:31.605Z,100911.13
2022-07-29T19:24:07.760Z,100912.56
2022-07-29T19:26:45.014Z,100915.47
2022-07-29T19:29:16.467Z,100919.59
2022-07-29T19:31:47.336Z,100913.88
2022-07-29T19:34:18.078Z,100926.59
2022-07-29T19:36:48.256Z,100919.19
2022-07-29T19:39:18.865Z,100931.00
2022-07-29T19:42:06.650Z,100929.00
2022-07-29T19:44:37.255Z,100934.75
2022-07-29T19:47:07.524Z,100945.78
2022-07-29T19:49:40.715Z,100946.09
2022-07-29T19:52:10.913Z,100948.91
2022-07-29T19:54:41.512Z,100949.97
2022-07-29T19:57:11.671Z,100956.09
2022-07-29T19:59:42.968Z,100959.88
2022-07-29T20:02:14.598Z,100958.78
2022-07-29T20:04:46.902Z,100961.47
2022-07-29T20:07:17.141Z,100968.63
2022-07-29T20:09:50.478Z,100977.38
2022-07-29T20:12:20.618Z,100971.81
2022-07-29T20:14:54.587Z,100977.44
2022-07-29T20:17:25.456Z,100972.84
2022-07-29T20:19:58.105Z,100980.56
2022-07-29T20:22:28.791Z,100986.97
2022-07-29T20:24:59.478Z,100982.81
2022-07-29T20:27:29.652Z,100981.25
2022-07-29T20:29:59.732Z,100974.06
2022-07-29T20:32:29.818Z,100975.38
2022-07-29T20:34:59.896Z,100973.50
2022-07-29T20:37:29.823Z,100982.47
2022-07-29T20:40:00.516Z,100972.06
2022-07-29T20:42:30.766Z,100981.41
2022-07-29T20:45:03.430Z,100986.59
2022-07-29T20:47:37.795Z,100996.53
2022-07-29T20:50:09.103Z,100994.13
2022-07-29T20:52:41.714Z,100992.41
2022-07-29T20:55:12.988Z,100992.00
2022-07-29T20:57:46.164Z,101005.28
2022-07-29T21:00:17.236Z,101000.00
2022-07-29T21:02:47.744Z,101004.16
2022-07-29T21:05:18.438Z,101008.63
2022-07-29T21:07:48.572Z,101011.16
2022-07-29T21:10:19.542Z,101011.47
2022-07-29T21:12:50.465Z,101007.47
2022-07-29T21:15:22.755Z,101015.88
2022-07-29T21:18:00.813Z,101011.16
2022-07-29T21:20:32.230Z,101022.41
2022-07-29T21:23:02.743Z,101027.16
2022-07-29T21:25:35.575Z,101020.63
2022-07-29T21:28:23.811Z,101031.69
2022-07-29T21:30:55.903Z,101033.72
2022-07-29T21:33:27.324Z,101035.78
2022-07-29T21:36:20.184Z,101036.47
2022-07-29T21:38:48.686Z,101048.41
2022-07-29T21:41:18.866Z,101043.22
2022-07-29T21:43:48.963Z,101046.81
2022-07-29T21:46:19.270Z,101038.56
2022-07-29T21:48:54.213Z,101045.16
2022-07-29T21:51:24.326Z,101041.28
2022-07-29T21:53:57.349Z,101040.69
2022-07-29T21:56:28.032Z,101042.31
2022-07-29T21:58:58.439Z,101045.91
2022-07-29T22:01:28.546Z,101028.16
2022-07-29T22:04:09.542Z,101039.53
2022-07-29T22:06:39.672Z,101042.06
2022-07-29T22:09:10.114Z,101040.44
2022-07-29T22:11:40.279Z,101038.38
2022-07-29T22:14:10.419Z,101040.41
2022-07-29T22:16:40.439Z,101034.28
2022-07-29T22:19:10.439Z,101032.38
2022-07-29T22:21:40.733Z,101041.31
2022-07-29T22:24:12.312Z,101041.81
2022-07-29T22:26:42.820Z,101039.88
2022-07-29T22:29:13.627Z,101044.91
2022-07-29T22:31:43.610Z,101038.38
2022-07-29T22:34:14.544Z,101045.72
2022-07-29T22:36:44.823Z,101040.63
2022-07-29T22:39:15.702Z,101053.13
2022-07-29T22:41:46.352Z,101051.22
2022-07-29T22:44:16.845Z,101051.94
2022-07-29T22:46:46.903Z,101061.03
2022-07-29T22:49:17.450Z,101051.22
2022-07-29T22:51:47.851Z,101060.44
2022-07-29T22:54:18.381Z,101060.75
2022-07-29T22:56:48.499Z,101067.72
2022-07-29T22:59:19.362Z,101064.00
2022-07-29T23:01:49.534Z,101079.19
2022-07-29T23:04:24.611Z,101067.91
2022-07-29T23:06:54.667Z,101071.91
2022-07-29T23:09:25.183Z,101075.34
2022-07-29T23:11:55.896Z,101085.16
2022-07-29T23:14:26.440Z,101081.28
2022-07-29T23:16:56.532Z,101084.72
2022-07-29T23:19:27.009Z,101088.75
2022-07-29T23:21:57.064Z,101096.19
2022-07-29T23:24:27.598Z,101099.78
2022-07-29T23:26:57.905Z,101104.38
2022-07-29T23:29:28.666Z,101101.69
2022-07-29T23:31:58.707Z,101106.63
2022-07-29T23:34:29.196Z,101107.81
2022-07-29T23:36:59.248Z,101113.19
2022-07-29T23:39:29.904Z,101104.09
2022-07-29T23:41:59.974Z,101120.91
2022-07-29T23:44:30.474Z,101114.06
2022-07-29T23:47:00.696Z,101131.66
2022-07-29T23:49:32.100Z,101140.75
2022-07-29T23:52:02.419Z,101138.81
2022-07-29T23:54:32.911Z,101148.31
2022-07-29T23:57:03.351Z,101152.78
2022-07-29T23:59:34.176Z,101152.22
